Time;durP1;ratioP1;P1;durP2;ratioP2;P2;SDS_P1;SDS_P2;PMS_P1;PMS_P2;Temp;Humidity;BMP_temperature;BMP_pressure;BME280_temperature;BME280_humidity;BME280_pressure;Samples;Min_cycle;Max_cycle;Signal;HPM_P1;HPM_P2
2021/10/01 00:01:29;;;;;;;4.35;2.40;;;4.20;99.90;;;;;;5033834;28;20050;-86
2021/10/01 00:03:56;;;;;;;7.50;2.67;;;4.10;99.90;;;;;;5037764;28;20049;-86
2021/10/01 00:06:23;;;;;;;5.75;2.45;;;4.00;99.90;;;;;;5036675;28;20045;-86
2021/10/01 00:08:50;;;;;;;5.47;3.10;;;4.00;99.90;;;;;;5035812;28;20060;-86
2021/10/01 00:11:18;;;;;;;7.72;3.22;;;3.90;99.90;;;;;;5036541;28;20053;-86
2021/10/01 00:13:45;;;;;;;4.82;2.60;;;3.90;99.90;;;;;;5035610;28;20052;-86
2021/10/01 00:16:12;;;;;;;6.50;2.83;;;3.80;99.90;;;;;;5035244;28;20053;-86
2021/10/01 00:18:39;;;;;;;2.72;2.53;;;3.80;99.90;;;;;;5035857;28;20050;-88
2021/10/01 00:21:07;;;;;;;3.65;2.38;;;3.70;99.90;;;;;;5035344;28;20045;-86
2021/10/01 00:23:34;;;;;;;6.18;2.63;;;3.70;99.90;;;;;;5035922;28;20050;-86
2021/10/01 00:26:03;;;;;;;4.72;2.55;;;3.70;99.90;;;;;;5035035;28;20063;-86
2021/10/01 00:28:31;;;;;;;2.65;2.45;;;3.60;99.90;;;;;;5035848;28;20064;-86
2021/10/01 00:30:57;;;;;;;2.80;2.60;;;3.60;99.90;;;;;;5042600;28;20059;-86
2021/10/01 00:33:24;;;;;;;2.80;2.58;;;3.60;99.90;;;;;;5053823;28;20050;-86
2021/10/01 00:35:51;;;;;;;3.17;2.80;;;3.50;99.90;;;;;;5039060;28;20045;-86
2021/10/01 00:38:18;;;;;;;2.83;2.60;;;3.60;99.90;;;;;;5036348;28;20076;-86
2021/10/01 00:40:45;;;;;;;8.38;3.00;;;3.60;99.90;;;;;;5035234;28;20055;-85
2021/10/01 00:43:12;;;;;;;3.63;2.38;;;3.60;99.90;;;;;;5035016;28;20049;-86
2021/10/01 00:45:38;;;;;;;3.10;2.80;;;3.70;99.90;;;;;;5035132;28;20418;-86
2021/10/01 00:48:05;;;;;;;3.38;2.67;;;3.70;99.90;;;;;;5035088;28;20049;-86
2021/10/01 00:50:32;;;;;;;4.82;3.05;;;3.80;99.90;;;;;;5035066;28;20139;-86
2021/10/01 00:52:59;;;;;;;10.10;3.72;;;3.80;99.90;;;;;;5034924;28;20084;-86
2021/10/01 00:55:26;;;;;;;5.22;2.85;;;3.70;99.90;;;;;;5034834;28;20103;-87
2021/10/01 00:57:53;;;;;;;5.47;2.60;;;3.70;99.90;;;;;;5034828;28;20050;-86
2021/10/01 01:00:27;;;;;;;2.88;2.50;;;3.60;99.90;;;;;;5034975;28;20084;-86
2021/10/01 01:03:02;;;;;;;3.10;2.90;;;3.60;99.90;;;;;;5034987;28;20052;-87
2021/10/01 01:05:40;;;;;;;6.35;2.60;;;3.50;99.90;;;;;;5035548;28;20494;-87
2021/10/01 01:08:09;;;;;;;3.92;2.92;;;3.40;99.90;;;;;;5035834;28;20061;-86
2021/10/01 01:10:43;;;;;;;3.00;2.13;;;3.30;99.90;;;;;;5035745;28;20417;-87
2021/10/01 01:13:23;;;;;;;5.35;2.42;;;3.30;99.90;;;;;;5034639;28;20505;-87
2021/10/01 01:16:01;;;;;;;2.40;2.20;;;3.30;99.90;;;;;;5035247;28;20504;-87
2021/10/01 01:18:35;;;;;;;2.22;1.95;;;3.30;99.90;;;;;;5034979;28;20055;-87
2021/10/01 01:21:01;;;;;;;;;;;3.20;99.90;;;;;;5036439;28;20133;-86
2021/10/01 01:23:59;;;;;;;2.75;2.50;;;3.20;99.90;;;;;;5034566;28;20384;-87
2021/10/01 01:27:00;;;;;;;6.72;2.80;;;3.20;99.90;;;;;;5034697;28;20049;-86
2021/10/01 01:29:37;;;;;;;3.97;2.58;;;3.10;99.90;;;;;;5034313;28;20486;-86
2021/10/01 01:32:23;;;;;;;9.45;3.10;;;3.10;99.90;;;;;;5034180;28;20052;-87
2021/10/01 01:34:55;;;;;;;2.65;2.45;;;3.10;99.90;;;;;;5035433;28;20077;-87
2021/10/01 01:37:27;;;;;;;2.45;2.35;;;3.10;99.90;;;;;;5035114;28;20045;-86
2021/10/01 01:39:55;;;;;;;3.83;3.13;;;3.20;99.90;;;;;;5035391;28;20089;-87
2021/10/01 01:42:24;;;;;;;2.45;2.25;;;3.10;99.90;;;;;;5034169;28;20049;-87
2021/10/01 01:44:51;;;;;;;3.25;2.83;;;3.10;99.90;;;;;;5035138;28;20155;-86
2021/10/01 01:47:18;;;;;;;2.50;2.30;;;3.10;99.90;;;;;;5034044;28;20132;-87
2021/10/01 01:49:46;;;;;;;3.30;2.72;;;3.20;99.90;;;;;;5045707;28;20039;-86
2021/10/01 01:52:15;;;;;;;4.68;2.60;;;3.10;99.90;;;;;;5049437;28;20060;-87
2021/10/01 01:54:44;;;;;;;3.13;2.33;;;3.00;99.90;;;;;;5035552;28;20049;-87
2021/10/01 01:57:11;;;;;;;2.85;2.13;;;3.00;99.90;;;;;;5033887;28;20045;-87
2021/10/01 01:59:38;;;;;;;2.20;2.00;;;2.90;99.90;;;;;;5033924;28;20042;-87
2021/10/01 02:02:06;;;;;;;4.15;2.13;;;3.00;99.90;;;;;;5033513;28;20046;-87
2021/10/01 02:04:34;;;;;;;3.35;2.60;;;2.90;99.90;;;;;;5033282;28;20474;-87
2021/10/01 02:07:03;;;;;;;3.03;2.70;;;2.90;99.90;;;;;;5033553;28;20136;-87
2021/10/01 02:09:31;;;;;;;2.67;2.30;;;2.70;99.90;;;;;;5033400;28;20045;-87
2021/10/01 02:12:00;;;;;;;3.97;2.50;;;2.80;99.90;;;;;;5033387;28;20408;-87
2021/10/01 02:14:28;;;;;;;3.47;3.03;;;2.80;99.90;;;;;;5034234;28;20041;-87
2021/10/01 02:16:56;;;;;;;3.38;2.95;;;2.90;99.90;;;;;;5034122;28;20075;-87
2021/10/01 02:19:28;;;;;;;6.35;4.53;;;2.90;99.90;;;;;;5033412;28;20052;-87
2021/10/01 02:21:55;;;;;;;8.60;5.72;;;2.90;99.90;;;;;;5033735;28;20509;-87
2021/10/01 02:24:27;;;;;;;6.43;4.32;;;3.00;99.90;;;;;;5032811;28;20055;-86
2021/10/01 02:27:06;;;;;;;9.90;5.40;;;2.90;99.90;;;;;;5033328;28;20049;-87
2021/10/01 02:29:49;;;;;;;7.32;4.85;;;2.90;99.90;;;;;;5033181;28;20046;-86
2021/10/01 02:32:22;;;;;;;14.90;7.68;;;2.90;99.90;;;;;;5034273;28;20057;-87
2021/10/01 02:34:50;;;;;;;15.55;8.73;;;2.90;99.90;;;;;;5033279;28;20124;-87
2021/10/01 02:37:17;;;;;;;14.88;8.57;;;2.90;99.90;;;;;;5032964;28;20140;-87
2021/10/01 02:39:47;;;;;;;16.05;9.52;;;2.90;99.90;;;;;;5033138;28;20072;-87
2021/10/01 02:42:15;;;;;;;16.88;10.75;;;2.90;99.90;;;;;;5032992;28;20111;-87
2021/10/01 02:44:44;;;;;;;20.35;10.20;;;2.90;99.90;;;;;;5033014;28;20049;-87
2021/10/01 02:47:13;;;;;;;14.77;9.60;;;2.90;99.90;;;;;;5033062;28;20049;-87
2021/10/01 02:49:40;;;;;;;16.00;9.18;;;2.80;99.90;;;;;;5033612;28;20052;-87
2021/10/01 02:52:28;;;;;;;15.68;10.48;;;2.80;99.90;;;;;;5032885;28;20052;-87
2021/10/01 02:55:14;;;;;;;14.75;8.90;;;2.70;99.90;;;;;;5033146;28;20045;-87
2021/10/01 02:57:54;;;;;;;17.58;7.80;;;2.70;99.90;;;;;;5033108;28;20057;-87
2021/10/01 03:00:22;;;;;;;10.10;7.10;;;2.60;99.90;;;;;;5033029;28;20177;-87
2021/10/01 03:02:51;;;;;;;8.13;5.25;;;2.60;99.90;;;;;;5032558;28;20051;-87
2021/10/01 03:05:19;;;;;;;7.65;5.28;;;2.70;99.90;;;;;;5033011;28;20128;-87
2021/10/01 03:07:47;;;;;;;8.10;4.80;;;2.60;99.90;;;;;;5041545;28;20100;-88
2021/10/01 03:10:16;;;;;;;5.15;3.83;;;2.60;99.90;;;;;;5052848;28;20052;-88
2021/10/01 03:12:44;;;;;;;4.40;4.00;;;2.50;99.90;;;;;;5035418;28;20144;-88
2021/10/01 03:15:13;;;;;;;4.95;4.45;;;2.40;99.90;;;;;;5032467;28;20049;-88
2021/10/01 03:17:41;;;;;;;5.55;3.45;;;2.40;99.90;;;;;;5033206;28;20092;-87
2021/10/01 03:20:09;;;;;;;4.97;4.03;;;2.40;99.90;;;;;;5032552;28;20045;-88
2021/10/01 03:22:39;;;;;;;4.32;3.40;;;2.30;99.90;;;;;;5032609;28;20045;-87
2021/10/01 03:25:06;;;;;;;4.57;3.25;;;2.30;99.90;;;;;;5032078;28;20140;-88
2021/10/01 03:27:34;;;;;;;4.20;2.88;;;2.40;99.90;;;;;;5032445;28;20061;-87
2021/10/01 03:30:05;;;;;;;5.65;3.30;;;2.40;99.90;;;;;;5033661;28;20056;-88
2021/10/01 03:32:32;;;;;;;2.72;2.53;;;2.30;99.90;;;;;;5033543;28;20046;-88
2021/10/01 03:35:01;;;;;;;3.28;2.97;;;2.30;99.90;;;;;;5034204;28;20049;-88
2021/10/01 03:37:32;;;;;;;2.63;2.40;;;2.30;99.90;;;;;;5036436;28;20049;-87
2021/10/01 03:40:02;;;;;;;5.78;3.38;;;2.30;99.90;;;;;;5037254;28;20053;-87
2021/10/01 03:42:29;;;;;;;5.03;3.40;;;2.30;99.90;;;;;;5036652;28;20046;-87
2021/10/01 03:44:57;;;;;;;3.70;2.80;;;2.30;99.90;;;;;;5037190;28;20406;-87
2021/10/01 03:47:23;;;;;;;2.42;2.33;;;2.40;99.90;;;;;;5036355;28;20081;-88
2021/10/01 03:49:50;;;;;;;3.65;2.90;;;2.40;99.90;;;;;;5036388;28;20077;-88
2021/10/01 03:52:18;;;;;;;2.60;2.40;;;2.40;99.90;;;;;;5036350;28;20049;-88
2021/10/01 03:54:48;;;;;;;4.45;2.83;;;2.40;99.90;;;;;;5036259;28;20053;-87
2021/10/01 03:57:15;;;;;;;5.45;2.90;;;2.30;99.90;;;;;;5036038;28;20463;-88
2021/10/01 03:59:41;;;;;;;5.07;2.67;;;2.30;99.90;;;;;;5036363;28;20045;-88
2021/10/01 04:02:09;;;;;;;3.88;3.00;;;2.30;99.90;;;;;;5036055;28;20383;-87
2021/10/01 04:04:36;;;;;;;2.85;2.65;;;2.30;99.90;;;;;;5035651;28;20050;-87
2021/10/01 04:07:04;;;;;;;11.60;3.85;;;2.30;99.90;;;;;;5035459;28;20053;-87
2021/10/01 04:09:31;;;;;;;9.48;6.07;;;2.40;99.90;;;;;;5036872;28;20049;-87
2021/10/01 04:11:58;;;;;;;8.45;5.13;;;2.30;99.90;;;;;;5035933;28;20111;-88
2021/10/01 04:14:25;;;;;;;7.38;3.70;;;2.30;99.90;;;;;;5036013;28;20132;-87
2021/10/01 04:16:52;;;;;;;4.53;3.10;;;2.40;99.90;;;;;;5036926;28;20513;-88
2021/10/01 04:19:19;;;;;;;3.50;3.20;;;2.40;99.90;;;;;;5036480;28;20046;-87
2021/10/01 04:22:03;;;;;;;5.30;3.20;;;2.40;99.90;;;;;;5036079;28;20064;-88
2021/10/01 04:24:29;;;;;;;3.33;3.13;;;2.40;99.90;;;;;;5036585;28;20127;-88
2021/10/01 04:26:56;;;;;;;2.85;2.38;;;2.30;99.90;;;;;;5051416;28;20049;-87
2021/10/01 04:29:23;;;;;;;6.43;2.63;;;2.30;99.90;;;;;;5052594;28;20054;-87
2021/10/01 04:31:50;;;;;;;2.85;2.30;;;2.20;99.90;;;;;;5036138;28;20049;-88
2021/10/01 04:34:17;;;;;;;3.25;2.95;;;2.20;99.90;;;;;;5035848;28;20504;-88
2021/10/01 04:36:44;;;;;;;3.85;2.80;;;2.10;99.90;;;;;;5036998;28;20077;-88
2021/10/01 04:39:13;;;;;;;2.70;2.50;;;2.10;99.90;;;;;;5036810;28;20417;-88
2021/10/01 04:41:42;;;;;;;12.48;3.42;;;2.00;99.90;;;;;;5036872;28;20136;-88
2021/10/01 04:44:11;;;;;;;4.80;2.80;;;2.00;99.90;;;;;;5035793;28;20053;-88
2021/10/01 04:46:38;;;;;;;2.88;2.67;;;2.00;99.90;;;;;;5036009;28;20144;-89
2021/10/01 04:49:05;;;;;;;6.78;3.47;;;2.00;99.90;;;;;;5035406;28;20045;-88
2021/10/01 04:51:31;;;;;;;3.50;3.25;;;1.90;99.90;;;;;;5035483;28;20064;-88
2021/10/01 04:53:58;;;;;;;3.40;3.05;;;1.80;99.90;;;;;;5035632;28;20046;-88
2021/10/01 04:56:26;;;;;;;3.28;3.05;;;1.80;99.90;;;;;;5036712;28;20049;-87
2021/10/01 04:58:52;;;;;;;6.72;3.15;;;1.80;99.90;;;;;;5036205;28;20045;-88
2021/10/01 05:01:20;;;;;;;6.28;3.72;;;1.80;99.90;;;;;;5035298;28;20088;-87
2021/10/01 05:03:47;;;;;;;6.43;3.17;;;1.80;99.90;;;;;;5035625;28;20442;-89
2021/10/01 05:06:14;;;;;;;4.85;3.17;;;1.80;99.90;;;;;;5037088;28;20057;-88
2021/10/01 05:08:41;;;;;;;7.38;3.20;;;1.80;99.90;;;;;;5035683;28;20048;-88
2021/10/01 05:11:08;;;;;;;4.18;3.30;;;1.80;99.90;;;;;;5035114;28;20413;-88
2021/10/01 05:13:35;;;;;;;3.40;3.20;;;1.70;99.90;;;;;;5040111;28;20053;-87
2021/10/01 05:16:03;;;;;;;3.42;3.10;;;1.70;99.90;;;;;;5037587;28;20064;-88
2021/10/01 05:18:30;;;;;;;4.72;3.60;;;1.80;99.90;;;;;;5037866;28;20409;-88
2021/10/01 05:21:02;;;;;;;8.07;3.70;;;1.80;99.90;;;;;;5036564;28;20483;-88
2021/10/01 05:23:30;;;;;;;13.27;4.13;;;1.80;99.90;;;;;;5036563;28;20494;-88
2021/10/01 05:25:58;;;;;;;4.90;4.50;;;1.90;99.90;;;;;;5036341;28;20387;-90
2021/10/01 05:28:25;;;;;;;8.38;3.60;;;1.80;99.90;;;;;;5035946;28;20092;-88
2021/10/01 05:30:51;;;;;;;5.82;4.88;;;1.80;99.90;;;;;;5035293;28;20084;-88
2021/10/01 05:33:18;;;;;;;4.03;3.60;;;1.80;99.90;;;;;;5034837;28;20049;-88
2021/10/01 05:35:45;;;;;;;3.83;3.53;;;1.90;99.90;;;;;;5036614;28;20045;-88
2021/10/01 05:38:13;;;;;;;4.80;3.78;;;2.00;99.90;;;;;;5036086;28;20060;-88
2021/10/01 05:40:41;;;;;;;6.93;4.53;;;2.00;99.90;;;;;;5035871;28;20520;-88
2021/10/01 05:43:08;;;;;;;6.80;5.05;;;2.10;99.90;;;;;;5035567;28;20041;-88
2021/10/01 05:45:35;;;;;;;6.65;5.63;;;2.10;99.90;;;;;;5052981;28;20079;-88
2021/10/01 05:48:02;;;;;;;12.00;6.80;;;2.20;99.90;;;;;;5053726;28;20084;-88
2021/10/01 05:50:32;;;;;;;8.38;5.95;;;2.20;99.90;;;;;;5035960;28;20050;-88
2021/10/01 05:53:14;;;;;;;9.88;5.55;;;2.20;99.90;;;;;;5034397;28;20049;-88
2021/10/01 05:55:41;;;;;;;10.90;6.80;;;2.30;99.90;;;;;;5034144;28;20056;-88
2021/10/01 05:58:08;;;;;;;7.32;6.47;;;2.50;99.90;;;;;;5033543;28;20128;-89
2021/10/01 06:00:35;;;;;;;13.25;6.60;;;2.60;99.90;;;;;;5034238;28;20042;-88
2021/10/01 06:03:02;;;;;;;10.38;6.45;;;2.60;99.90;;;;;;5034451;28;20052;-88
2021/10/01 06:05:29;;;;;;;13.43;6.75;;;2.80;99.90;;;;;;5034192;28;20087;-86
2021/10/01 06:07:56;;;;;;;7.90;6.80;;;2.80;99.90;;;;;;5034324;28;20477;-88
2021/10/01 06:10:23;;;;;;;6.97;6.28;;;2.90;99.90;;;;;;5034017;28;20144;-88
2021/10/01 06:12:49;;;;;;;7.80;6.22;;;3.00;99.90;;;;;;5034351;28;20079;-88
2021/10/01 06:15:17;;;;;;;23.08;7.57;;;3.10;99.90;;;;;;5035159;28;20059;-88
2021/10/01 06:17:44;;;;;;;9.63;5.80;;;3.20;99.90;;;;;;5034175;28;20061;-88
2021/10/01 06:20:12;;;;;;;16.08;7.72;;;3.20;99.90;;;;;;5037220;28;20051;-87
2021/10/01 06:22:39;;;;;;;10.68;5.15;;;3.30;99.90;;;;;;5034965;28;20486;-88
2021/10/01 06:25:07;;;;;;;8.20;4.82;;;3.30;99.90;;;;;;5033688;28;20045;-88
2021/10/01 06:27:34;;;;;;;4.80;4.13;;;3.40;99.90;;;;;;5033832;28;20093;-88
2021/10/01 06:30:00;;;;;;;6.78;5.90;;;3.50;99.90;;;;;;5033732;28;20561;-88
2021/10/01 06:32:32;;;;;;;8.70;6.60;;;3.50;99.90;;;;;;5036416;28;20117;-88
2021/10/01 06:34:59;;;;;;;8.48;5.40;;;3.60;99.90;;;;;;5034723;28;20053;-89
2021/10/01 06:37:25;;;;;;;10.55;5.63;;;3.70;99.90;;;;;;5033824;28;20055;-88
2021/10/01 06:39:52;;;;;;;14.45;5.30;;;3.70;99.90;;;;;;5033374;28;20148;-87
2021/10/01 06:42:20;;;;;;;10.52;5.43;;;3.80;99.90;;;;;;5033546;28;20056;-88
2021/10/01 06:44:54;;;;;;;17.60;6.60;;;3.90;99.90;;;;;;5033408;28;20080;-88
2021/10/01 07:45:32;;;;;;;11.15;2.88;;;10.90;99.90;;;;;;5032687;28;20050;-87
2021/10/01 08:21:09;;;;;;;30.13;2.88;;;24.90;77.90;;;;;;5034894;28;20124;-86
2021/10/01 08:23:36;;;;;;;8.48;1.52;;;23.50;79.60;;;;;;5050703;28;20109;-86
2021/10/01 08:26:03;;;;;;;5.70;1.80;;;23.20;73.50;;;;;;5037098;28;20464;-87
2021/10/01 08:28:30;;;;;;;23.98;2.30;;;24.50;74.30;;;;;;5036827;28;20054;-86
2021/10/01 08:30:57;;;;;;;3.63;1.30;;;25.50;72.30;;;;;;5035031;28;20046;-86
2021/10/01 08:33:24;;;;;;;3.33;1.10;;;26.50;64.60;;;;;;5035559;28;20569;-87
2021/10/01 08:35:51;;;;;;;6.35;1.40;;;25.80;67.30;;;;;;5035339;28;20128;-88
2021/10/01 08:38:18;;;;;;;8.32;1.58;;;26.80;64.30;;;;;;5035301;28;20145;-87
2021/10/01 08:40:45;;;;;;;7.68;1.67;;;28.20;60.10;;;;;;5035475;28;20045;-84
2021/10/01 08:43:13;;;;;;;3.47;0.60;;;29.40;60.50;;;;;;5034833;28;20056;-85
2021/10/01 08:45:41;;;;;;;5.25;1.15;;;29.00;57.70;;;;;;5034960;28;20061;-84
2021/10/01 08:48:09;;;;;;;0.68;0.40;;;29.40;57.90;;;;;;5036038;28;20055;-85
2021/10/01 08:50:36;;;;;;;5.65;1.30;;;31.20;54.20;;;;;;5036438;28;20075;-85
2021/10/01 08:53:05;;;;;;;2.63;0.75;;;29.20;55.60;;;;;;5035836;28;20050;-85
2021/10/01 08:55:32;;;;;;;3.00;0.68;;;29.70;56.20;;;;;;5034856;28;20483;-84
2021/10/01 08:57:59;;;;;;;2.78;0.50;;;30.00;53.60;;;;;;5034860;28;20059;-85
2021/10/01 09:00:25;;;;;;;1.75;0.75;;;29.30;55.10;;;;;;5035644;28;20052;-86
2021/10/01 09:02:53;;;;;;;2.45;0.50;;;29.90;54.60;;;;;;5035740;28;20506;-84
2021/10/01 09:05:21;;;;;;;1.38;0.50;;;29.90;54.40;;;;;;5034706;28;20047;-88
2021/10/01 09:07:47;;;;;;;0.85;0.30;;;29.30;51.70;;;;;;5035883;28;20053;-87
2021/10/01 09:10:15;;;;;;;2.10;0.60;;;29.40;53.10;;;;;;5034919;28;20128;-87
2021/10/01 09:12:50;;;;;;;1.27;0.52;;;28.70;54.40;;;;;;5034243;28;20049;-86
2021/10/01 09:15:17;;;;;;;3.45;0.50;;;30.40;53.10;;;;;;5035102;28;20140;-85
2021/10/01 09:17:50;;;;;;;1.02;0.60;;;31.30;50.90;;;;;;5034458;28;20500;-85
2021/10/01 09:20:23;;;;;;;0.50;0.38;;;31.80;49.90;;;;;;5034915;28;20470;-85
2021/10/01 09:22:49;;;;;;;2.40;0.47;;;30.60;49.40;;;;;;5034481;28;20049;-85
2021/10/01 09:25:23;;;;;;;1.83;0.30;;;31.20;50.10;;;;;;5033978;28;20045;-86
2021/10/01 09:28:00;;;;;;;7.13;0.90;;;30.70;50.00;;;;;;5035313;28;20060;-86
2021/10/01 09:30:27;;;;;;;1.92;0.30;;;30.70;50.60;;;;;;5035719;28;20170;-85
2021/10/01 09:33:11;;;;;;;2.58;0.40;;;30.30;51.10;;;;;;5034304;28;20107;-84
2021/10/01 09:35:42;;;;;;;0.40;0.40;;;29.70;52.00;;;;;;5034147;28;20568;-84
2021/10/01 09:38:14;;;;;;;5.43;0.80;;;30.20;52.30;;;;;;5034563;28;20080;-85
2021/10/01 09:40:43;;;;;;;2.70;0.70;;;30.40;49.60;;;;;;5041524;28;20053;-83
2021/10/01 09:43:30;;;;;;;1.23;0.40;;;30.40;50.80;;;;;;5037965;28;20140;-85
2021/10/01 09:46:08;;;;;;;1.77;0.40;;;32.10;49.40;;;;;;5034950;28;20077;-85
2021/10/01 09:48:38;;;;;;;2.13;0.60;;;31.80;48.70;;;;;;5035088;28;20049;-85
2021/10/01 09:51:11;;;;;;;1.10;0.60;;;31.30;48.40;;;;;;5033941;28;20413;-85
2021/10/01 09:53:42;;;;;;;0.70;0.30;;;30.10;49.50;;;;;;5033775;28;20049;-86
2021/10/01 09:56:30;;;;;;;1.10;0.38;;;30.40;49.60;;;;;;5033755;28;20046;-86
2021/10/01 09:59:10;;;;;;;5.70;0.85;;;29.40;49.40;;;;;;5033739;28;20494;-85
2021/10/01 10:01:59;;;;;;;3.00;0.40;;;28.10;50.50;;;;;;5034065;28;20049;-86
2021/10/01 10:04:27;;;;;;;1.73;0.57;;;28.90;51.80;;;;;;5034706;28;20073;-87
2021/10/01 10:06:54;;;;;;;12.00;2.72;;;29.80;50.70;;;;;;5033695;28;20049;-90
2021/10/01 10:09:35;;;;;;;3.17;0.98;;;29.10;50.10;;;;;;5033401;28;20049;-86
2021/10/01 10:12:03;;;;;;;2.05;0.60;;;29.00;49.00;;;;;;5033879;28;20081;-86
2021/10/01 10:14:40;;;;;;;1.05;0.40;;;27.80;50.90;;;;;;5034778;28;20103;-85
2021/10/01 10:17:19;;;;;;;8.32;2.38;;;28.30;50.50;;;;;;5033672;28;20065;-84
2021/10/01 10:19:48;;;;;;;0.95;0.57;;;25.80;52.60;;;;;;5033850;28;20058;-84
2021/10/01 10:22:15;;;;;;;0.88;0.30;;;26.70;54.70;;;;;;5034700;28;20061;-85
2021/10/01 10:24:42;;;;;;;1.90;0.40;;;28.70;51.20;;;;;;5036684;28;20131;-83
2021/10/01 10:27:09;;;;;;;0.50;0.30;;;29.60;50.20;;;;;;5035664;28;20145;-86
2021/10/01 10:29:38;;;;;;;0.60;0.50;;;30.00;48.80;;;;;;5035173;28;20064;-84
2021/10/01 10:32:10;;;;;;;1.27;0.40;;;30.30;49.30;;;;;;5040335;28;20103;-84
2021/10/01 10:34:50;;;;;;;3.13;0.40;;;29.30;48.70;;;;;;5034227;28;20124;-83
2021/10/01 10:37:21;;;;;;;0.82;0.30;;;30.00;49.20;;;;;;5022511;28;20148;-85
2021/10/01 10:39:53;;;;;;;1.23;0.38;;;29.70;48.80;;;;;;5036027;28;20417;-84
2021/10/01 10:42:33;;;;;;;3.33;0.40;;;30.10;48.50;;;;;;5035703;28;20121;-87
2021/10/01 10:45:08;;;;;;;3.60;1.02;;;29.20;48.00;;;;;;5034643;28;20414;-88
2021/10/01 10:48:02;;;;;;;1.98;0.38;;;29.20;47.60;;;;;;5033084;28;20085;-88
2021/10/01 10:50:45;;;;;;;1.05;0.40;;;27.80;49.20;;;;;;5033116;28;20136;-87
2021/10/01 10:53:25;;;;;;;2.90;0.30;;;27.10;50.00;;;;;;5033059;28;20052;-86
2021/10/01 10:56:01;;;;;;;1.40;0.60;;;26.50;50.80;;;;;;5035721;28;20597;-86
2021/10/01 10:58:28;;;;;;;2.08;0.25;;;26.80;50.70;;;;;;5053572;28;20069;-88
2021/10/01 11:01:01;;;;;;;0.85;0.50;;;27.70;49.40;;;;;;5036434;28;20071;-88
2021/10/01 11:03:33;;;;;;;3.03;0.82;;;27.40;48.70;;;;;;5033007;28;20045;-84
2021/10/01 11:06:18;;;;;;;3.22;0.70;;;25.80;50.10;;;;;;5032725;28;20212;-84
2021/10/01 11:08:51;;;;;;;1.83;0.60;;;25.10;53.90;;;;;;5032543;28;20054;-84
2021/10/01 11:11:33;;;;;;;2.70;0.70;;;26.50;52.90;;;;;;5032771;28;20045;-87
2021/10/01 11:14:13;;;;;;;2.25;1.05;;;27.20;49.60;;;;;;5032981;28;20088;-88
2021/10/01 11:16:45;;;;;;;26.52;5.78;;;26.00;51.10;;;;;;5032972;28;20085;-86
2021/10/01 11:19:12;;;;;;;4.47;1.02;;;25.60;50.40;;;;;;5033071;28;20041;-87
2021/10/01 11:21:44;;;;;;;2.63;0.60;;;25.30;51.80;;;;;;5034126;28;20059;-90
2021/10/01 11:24:21;;;;;;;2.07;0.63;;;26.30;53.10;;;;;;5037374;28;20045;-87
2021/10/01 11:26:51;;;;;;;8.13;1.75;;;27.10;50.10;;;;;;5033123;28;20049;-87
2021/10/01 11:29:28;;;;;;;3.33;0.50;;;26.00;50.50;;;;;;5031565;28;20046;-91
2021/10/01 11:32:07;;;;;;;0.80;0.60;;;25.50;52.20;;;;;;5033732;28;20052;-86
2021/10/01 11:34:45;;;;;;;1.75;0.60;;;25.30;52.30;;;;;;5032735;28;20053;-87
2021/10/01 11:37:31;;;;;;;0.88;0.50;;;25.10;52.90;;;;;;5033649;28;20095;-87
2021/10/01 11:40:16;;;;;;;2.47;0.50;;;25.50;54.70;;;;;;5032652;28;20050;-89
2021/10/01 11:42:45;;;;;;;1.50;0.40;;;26.00;53.10;;;;;;5033549;28;20494;-84
2021/10/01 11:45:26;;;;;;;0.70;0.35;;;25.30;51.60;;;;;;5032530;28;20072;-87
2021/10/01 11:48:08;;;;;;;1.60;0.38;;;24.80;53.50;;;;;;5032488;28;20091;-85
2021/10/01 11:50:39;;;;;;;0.40;0.30;;;25.00;53.70;;;;;;5033147;28;20060;-87
2021/10/01 11:53:18;;;;;;;3.67;1.17;;;24.90;52.70;;;;;;5032310;28;20059;-87
2021/10/01 11:55:58;;;;;;;0.55;0.40;;;24.60;53.10;;;;;;5032319;28;20105;-88
2021/10/01 11:58:28;;;;;;;1.40;1.10;;;24.90;52.20;;;;;;5035961;28;20072;-87
2021/10/01 12:00:55;;;;;;;0.80;0.45;;;24.90;55.70;;;;;;5037522;28;20048;-90
2021/10/01 12:03:22;;;;;;;2.00;0.52;;;25.00;55.70;;;;;;5037081;28;20053;-86
2021/10/01 12:05:52;;;;;;;0.65;0.43;;;24.30;55.30;;;;;;5036140;28;20577;-90
2021/10/01 12:08:22;;;;;;;4.40;1.67;;;23.50;55.90;;;;;;5037204;28;20050;-86
2021/10/01 12:10:54;;;;;;;1.15;0.70;;;23.30;56.50;;;;;;5035957;28;20063;-85
2021/10/01 12:13:32;;;;;;;1.35;0.70;;;23.30;58.50;;;;;;5038115;28;20049;-89
2021/10/01 12:16:09;;;;;;;0.60;0.50;;;23.40;57.80;;;;;;5039987;28;20071;-91
2021/10/01 12:18:45;;;;;;;2.28;0.50;;;22.70;58.20;;;;;;5037130;28;20049;-87
2021/10/01 12:21:16;;;;;;;3.35;0.65;;;22.10;60.00;;;;;;5036007;28;20049;-86
2021/10/01 12:23:45;;;;;;;7.28;2.35;;;21.70;61.50;;;;;;5036004;28;20049;-85
2021/10/01 12:26:28;;;;;;;1.65;0.50;;;20.90;63.70;;;;;;5035443;28;20482;-83
2021/10/01 12:29:10;;;;;;;3.85;1.40;;;20.70;65.30;;;;;;5035436;28;20056;-85
2021/10/01 12:31:47;;;;;;;1.95;0.70;;;20.60;68.10;;;;;;5036720;28;20081;-87
2021/10/01 12:34:22;;;;;;;2.25;0.80;;;20.60;67.80;;;;;;5036042;28;20410;-85
2021/10/01 12:36:52;;;;;;;0.68;0.40;;;20.40;65.70;;;;;;5035227;28;20128;-86
2021/10/01 12:39:23;;;;;;;2.95;1.17;;;20.30;67.70;;;;;;5035770;28;20132;-84
2021/10/01 12:42:12;;;;;;;0.65;0.40;;;20.10;66.90;;;;;;5036850;28;20136;-85
2021/10/01 12:44:43;;;;;;;1.52;1.40;;;19.90;66.50;;;;;;5035721;28;20088;-86
2021/10/01 12:47:19;;;;;;;0.77;0.40;;;19.80;69.00;;;;;;5034059;28;20129;-87
2021/10/01 12:50:01;;;;;;;2.85;0.35;;;19.70;70.90;;;;;;5033981;28;20049;-87
2021/10/01 12:52:30;;;;;;;2.28;0.60;;;19.80;72.80;;;;;;5034840;28;20085;-87
2021/10/01 12:55:01;;;;;;;4.53;1.42;;;19.80;71.10;;;;;;5034502;28;20132;-86
2021/10/01 12:57:35;;;;;;;4.15;3.72;;;19.80;73.40;;;;;;5035760;28;20057;-85
2021/10/01 13:00:02;;;;;;;0.77;0.60;;;19.90;73.20;;;;;;5034897;28;20072;-85
2021/10/01 13:02:39;;;;;;;0.93;0.55;;;20.00;74.30;;;;;;5034427;28;20144;-85
2021/10/01 13:05:14;;;;;;;4.20;0.60;;;20.00;73.30;;;;;;5034467;28;20050;-93
2021/10/01 13:07:43;;;;;;;1.73;1.00;;;20.00;71.70;;;;;;5034242;28;20512;-85
2021/10/01 13:10:13;;;;;;;0.45;0.45;;;19.90;73.50;;;;;;5035818;28;20532;-85
2021/10/01 13:12:51;;;;;;;2.05;0.60;;;19.80;70.10;;;;;;5031911;28;20551;-88
2021/10/01 13:15:40;;;;;;;4.10;0.70;;;19.70;71.40;;;;;;5048159;28;20132;-85
2021/10/01 13:18:20;;;;;;;4.97;0.73;;;19.50;74.40;;;;;;5014131;28;20422;-85
2021/10/01 13:20:54;;;;;;;7.95;1.63;;;19.60;74.50;;;;;;5013435;28;20050;-86
2021/10/01 13:23:31;;;;;;;4.00;1.60;;;19.40;73.30;;;;;;5013079;28;20052;-87
2021/10/01 13:26:14;;;;;;;3.83;1.38;;;19.30;74.10;;;;;;5014044;28;20050;-85
2021/10/01 13:28:45;;;;;;;2.65;1.40;;;19.40;79.00;;;;;;5015469;28;20568;-89
2021/10/01 13:31:12;;;;;;;1.05;0.82;;;19.50;77.10;;;;;;5018642;28;20046;-86
2021/10/01 13:33:39;;;;;;;1.10;0.55;;;19.40;75.90;;;;;;5036551;28;20085;-86
2021/10/01 13:36:06;;;;;;;3.03;0.80;;;19.30;74.40;;;;;;5024791;28;20092;-86
2021/10/01 13:38:35;;;;;;;1.70;0.60;;;19.30;74.80;;;;;;5014779;28;20054;-86
2021/10/01 13:41:06;;;;;;;7.90;1.60;;;19.20;75.90;;;;;;5015100;28;20052;-86
2021/10/01 13:43:35;;;;;;;0.68;0.68;;;19.30;76.90;;;;;;5014101;28;20054;-85
2021/10/01 13:46:04;;;;;;;2.22;0.63;;;19.30;76.20;;;;;;5014455;28;20056;-86
2021/10/01 13:48:31;;;;;;;4.03;0.95;;;19.30;75.60;;;;;;5014812;28;20050;-85
2021/10/01 13:50:58;;;;;;;2.92;0.75;;;19.30;77.20;;;;;;5015096;28;20093;-87
2021/10/01 13:53:26;;;;;;;2.13;0.47;;;19.30;77.40;;;;;;5013936;28;20056;-86
2021/10/01 13:55:53;;;;;;;1.52;0.60;;;19.40;75.30;;;;;;5014135;28;20042;-89
2021/10/01 13:58:20;;;;;;;6.32;1.10;;;19.30;76.40;;;;;;5014356;28;20129;-86
2021/10/01 14:00:48;;;;;;;10.48;1.67;;;19.10;76.00;;;;;;5015281;28;20060;-87
2021/10/01 14:03:16;;;;;;;2.33;0.50;;;19.10;79.30;;;;;;5015276;28;20553;-90
2021/10/01 14:05:42;;;;;;;23.70;2.25;;;19.10;77.40;;;;;;5014785;28;20133;-87
2021/10/01 14:08:09;;;;;;;5.78;1.30;;;19.00;76.50;;;;;;5014039;28;20050;-87
2021/10/01 14:10:36;;;;;;;8.32;1.38;;;19.00;78.10;;;;;;5016122;28;20082;-86
2021/10/01 14:13:06;;;;;;;3.30;1.00;;;19.00;79.70;;;;;;5013875;28;20050;-92
2021/10/01 14:15:34;;;;;;;2.03;0.45;;;19.10;79.30;;;;;;5014271;28;20076;-85
2021/10/01 14:18:01;;;;;;;6.38;2.22;;;19.10;76.50;;;;;;5033687;28;20095;-86
2021/10/01 14:20:29;;;;;;;0.55;0.55;;;19.10;74.70;;;;;;5033094;28;20056;-87
2021/10/01 14:22:56;;;;;;;2.05;0.60;;;19.00;75.70;;;;;;5033374;28;20128;-86
2021/10/01 14:25:24;;;;;;;3.78;0.73;;;18.90;75.60;;;;;;5034093;28;20053;-85
2021/10/01 14:27:56;;;;;;;1.77;0.55;;;18.80;74.10;;;;;;5033420;28;20049;-86
2021/10/01 14:30:28;;;;;;;2.60;0.85;;;18.90;76.40;;;;;;5034645;28;20050;-87
2021/10/01 14:32:57;;;;;;;2.28;0.40;;;18.90;78.40;;;;;;5033259;28;20045;-87
2021/10/01 14:35:34;;;;;;;14.65;1.63;;;18.90;78.30;;;;;;5034320;28;20053;-90
2021/10/01 14:38:06;;;;;;;10.43;1.35;;;18.80;78.40;;;;;;5034118;28;20049;-89
2021/10/01 14:40:35;;;;;;;34.80;3.40;;;18.70;78.10;;;;;;5034075;28;20139;-86